createdAt,value
2022-12-18T00:02:12.983Z,100813.00
2022-12-18T00:04:39.631Z,100811.28
2022-12-18T00:07:06.138Z,100806.91
2022-12-18T00:09:40.120Z,100805.28
2022-12-18T00:14:45.006Z,100814.88
2022-12-18T00:17:11.472Z,100817.84
2022-12-18T00:19:38.018Z,100819.56
2022-12-18T00:22:04.470Z,100818.34
2022-12-18T00:24:31.100Z,100825.44
2022-12-18T00:26:57.548Z,100837.63
2022-12-18T00:29:24.125Z,100833.78
2022-12-18T00:31:50.715Z,100845.97
2022-12-18T00:34:17.351Z,100844.81
2022-12-18T00:36:43.853Z,100845.59
2022-12-18T00:39:11.892Z,100840.66
2022-12-18T00:41:57.494Z,100840.22
2022-12-18T00:44:23.973Z,100837.81
2022-12-18T00:46:50.379Z,100849.78
2022-12-18T00:49:19.712Z,100859.75
2022-12-18T00:51:46.918Z,100866.66
2022-12-18T00:54:13.499Z,100869.78
2022-12-18T00:56:48.446Z,100871.84
2022-12-18T00:59:15.695Z,100866.47
2022-12-18T01:01:42.213Z,100871.75
2022-12-18T01:04:09.170Z,100866.56
2022-12-18T01:06:35.612Z,100872.97
2022-12-18T01:09:02.511Z,100863.22
2022-12-18T01:11:29.143Z,100868.03
2022-12-18T01:13:56.053Z,100860.84
2022-12-18T01:16:23.011Z,100861.56
2022-12-18T01:18:54.553Z,100860.19
2022-12-18T01:21:23.200Z,100863.41
2022-12-18T01:23:53.166Z,100869.09
2022-12-18T01:26:20.050Z,100870.81
2022-12-18T01:28:46.448Z,100871.22
2022-12-18T01:31:12.882Z,100872.44
2022-12-18T01:33:39.675Z,100873.66
2022-12-18T01:36:06.556Z,100874.94
2022-12-18T01:38:36.084Z,100873.56
2022-12-18T01:41:05.984Z,100871.84
2022-12-18T01:43:46.015Z,100878.34
2022-12-18T01:46:13.401Z,100875.16
2022-12-18T01:48:40.873Z,100872.25
2022-12-18T01:51:10.544Z,100892.22
2022-12-18T01:53:40.473Z,100886.31
2022-12-18T01:56:08.069Z,100889.44
2022-12-18T01:58:40.607Z,100883.81
2022-12-18T02:01:07.192Z,100878.22
2022-12-18T02:03:33.758Z,100875.94
2022-12-18T02:06:20.579Z,100875.16
2022-12-18T02:08:59.596Z,100877.22
2022-12-18T02:11:41.191Z,100882.41
2022-12-18T02:14:17.832Z,100884.19
2022-12-18T02:16:49.330Z,100881.53
2022-12-18T02:19:53.790Z,100886.63
2022-12-18T02:22:40.771Z,100875.94
2022-12-18T02:25:32.696Z,100879.31
2022-12-18T02:28:02.996Z,100880.13
2022-12-18T02:30:34.693Z,100881.22
2022-12-18T02:33:05.143Z,100888.91
2022-12-18T02:35:35.263Z,100889.44
2022-12-18T02:38:04.209Z,100894.81
2022-12-18T02:40:32.177Z,100887.13
2022-12-18T02:43:24.764Z,100888.81
2022-12-18T02:45:55.337Z,100890.81
2022-12-18T02:48:26.766Z,100883.03
2022-12-18T02:51:15.933Z,100890.91
2022-12-18T02:53:54.323Z,100890.50
2022-12-18T02:56:31.876Z,100901.88
2022-12-18T02:59:24.936Z,100895.91
2022-12-18T03:02:30.164Z,100892.91
2022-12-18T03:05:21.724Z,100898.88
2022-12-18T03:08:23.340Z,100891.09
2022-12-18T03:11:01.397Z,100887.97
2022-12-18T03:13:53.852Z,100891.16
2022-12-18T03:16:29.387Z,100890.53
2022-12-18T03:19:00.931Z,100888.44
2022-12-18T03:21:41.681Z,100893.75
2022-12-18T03:24:10.389Z,100893.94
2022-12-18T03:26:41.855Z,100896.81
2022-12-18T03:29:14.110Z,100896.81
2022-12-18T03:31:43.556Z,100896.53
2022-12-18T03:34:28.082Z,100896.63
2022-12-18T03:36:54.568Z,100899.75
2022-12-18T03:39:21.468Z,100899.44
2022-12-18T03:41:53.688Z,100912.34
2022-12-18T03:44:40.930Z,100919.13
2022-12-18T03:47:25.855Z,100922.03
2022-12-18T03:50:08.317Z,100911.94
2022-12-18T03:52:43.669Z,100907.47
2022-12-18T03:55:11.846Z,100908.25
2022-12-18T03:57:39.911Z,100915.44
2022-12-18T04:00:13.816Z,100912.97
2022-12-18T04:02:45.333Z,100906.78
2022-12-18T04:05:14.134Z,100910.47
2022-12-18T04:07:41.337Z,100920.56
2022-12-18T04:10:09.851Z,100924.13
2022-12-18T04:12:38.709Z,100924.22
2022-12-18T04:15:06.289Z,100934.50
2022-12-18T04:17:32.864Z,100936.28
2022-12-18T04:19:59.360Z,100935.78
2022-12-18T04:22:25.914Z,100930.19
2022-12-18T04:24:52.469Z,100929.41
2022-12-18T04:27:19.160Z,100939.97
2022-12-18T04:29:45.828Z,100936.81
2022-12-18T04:32:12.327Z,100940.28
2022-12-18T04:34:38.852Z,100934.59
2022-12-18T04:37:05.376Z,100943.94
2022-12-18T04:39:31.931Z,100950.72
2022-12-18T04:41:58.407Z,100953.91
2022-12-18T04:44:27.946Z,100951.13
2022-12-18T04:46:54.470Z,100952.72
2022-12-18T04:49:21.047Z,100954.66
2022-12-18T04:51:47.480Z,100949.66
2022-12-18T04:54:14.172Z,100952.22
2022-12-18T04:56:40.876Z,100948.28
2022-12-18T04:59:07.333Z,100946.59
2022-12-18T05:01:35.051Z,100935.34
2022-12-18T05:04:02.937Z,100929.13
2022-12-18T05:06:29.607Z,100932.19
2022-12-18T05:08:56.291Z,100937.19
2022-12-18T05:11:22.983Z,100938.84
2022-12-18T05:13:49.572Z,100941.84
2022-12-18T05:16:16.312Z,100936.69
2022-12-18T05:18:43.197Z,100942.66
2022-12-18T05:21:09.924Z,100950.75
2022-12-18T05:23:36.855Z,100942.34
2022-12-18T05:26:05.512Z,100941.38
2022-12-18T05:28:35.266Z,100948.03
2022-12-18T05:31:03.893Z,100942.06
2022-12-18T05:33:33.071Z,100947.66
2022-12-18T05:36:04.267Z,100958.25
2022-12-18T05:38:33.149Z,100948.00
2022-12-18T05:40:59.875Z,100946.31
2022-12-18T05:43:27.301Z,100950.69
2022-12-18T05:45:54.423Z,100957.69
2022-12-18T05:48:22.010Z,100949.69
2022-12-18T05:50:50.984Z,100950.50
2022-12-18T05:53:20.482Z,100951.97
2022-12-18T05:55:47.887Z,100955.34
2022-12-18T05:58:15.363Z,100958.03
2022-12-18T06:00:45.639Z,100963.78
2022-12-18T06:03:13.536Z,100964.00
2022-12-18T06:05:42.416Z,100962.78
2022-12-18T06:08:09.335Z,100962.56
2022-12-18T06:10:36.322Z,100960.66
2022-12-18T06:13:02.972Z,100968.63
2022-12-18T06:15:29.490Z,100968.63
2022-12-18T06:17:55.966Z,100966.16
2022-12-18T06:20:22.771Z,100971.13
2022-12-18T06:22:49.543Z,100968.44
2022-12-18T06:25:16.575Z,100974.94
2022-12-18T06:27:43.163Z,100973.28
2022-12-18T06:30:11.121Z,100983.97
2022-12-18T06:32:37.787Z,100977.28
2022-12-18T06:35:04.942Z,100976.50
2022-12-18T06:37:32.489Z,100976.06
2022-12-18T06:39:59.057Z,100978.91
2022-12-18T06:42:25.969Z,100975.00
2022-12-18T06:44:52.618Z,100988.38
2022-12-18T06:47:19.786Z,100988.81
2022-12-18T06:49:46.308Z,100994.22
2022-12-18T06:52:12.933Z,100998.81
2022-12-18T06:54:39.429Z,101005.22
2022-12-18T06:57:05.949Z,100994.31
2022-12-18T06:59:32.460Z,101004.44
2022-12-18T07:01:59.094Z,101006.25
2022-12-18T07:04:31.343Z,101005.47
2022-12-18T07:06:58.400Z,101012.22
2022-12-18T07:09:25.470Z,101018.75
2022-12-18T07:11:52.736Z,101019.09
2022-12-18T07:14:19.232Z,101018.19
2022-12-18T07:16:45.792Z,101021.78
2022-12-18T07:19:12.318Z,101022.03
2022-12-18T07:21:38.810Z,101015.38
2022-12-18T07:24:06.073Z,101015.38
2022-12-18T07:26:32.786Z,101007.81
2022-12-18T07:28:59.334Z,101013.22
2022-12-18T07:31:26.791Z,101006.34
2022-12-18T07:33:53.559Z,101020.84
2022-12-18T07:36:20.252Z,101033.25
2022-12-18T07:38:51.278Z,101029.22
2022-12-18T07:41:18.060Z,101037.84
2022-12-18T07:43:44.796Z,101043.91
2022-12-18T07:46:14.861Z,101054.84
2022-12-18T07:48:46.268Z,101048.06
2022-12-18T07:51:18.318Z,101046.94
2022-12-18T07:53:45.249Z,101049.88
2022-12-18T07:56:29.470Z,101052.91
2022-12-18T07:58:57.912Z,101048.34
2022-12-18T08:01:24.846Z,101043.50
2022-12-18T08:03:52.808Z,101043.53
2022-12-18T08:06:19.721Z,101037.25
2022-12-18T08:08:49.854Z,101031.56
2022-12-18T08:11:16.996Z,101018.75
2022-12-18T08:13:43.657Z,101020.28
2022-12-18T08:16:10.249Z,101010.63
2022-12-18T08:18:38.543Z,101015.72
2022-12-18T08:21:11.980Z,101007.47
2022-12-18T08:23:42.623Z,101010.19
2022-12-18T08:26:10.286Z,101015.88
2022-12-18T08:28:36.966Z,101021.00
2022-12-18T08:31:03.689Z,101025.72
2022-12-18T08:33:30.261Z,101035.19
2022-12-18T08:35:56.749Z,101032.78
2022-12-18T08:38:24.243Z,101020.63
2022-12-18T08:40:50.800Z,101024.25
2022-12-18T08:43:35.937Z,101029.13
2022-12-18T08:46:02.629Z,101015.78
2022-12-18T08:48:29.187Z,101015.06
2022-12-18T08:51:00.064Z,101019.50
2022-12-18T08:53:32.709Z,101021.13
2022-12-18T08:56:02.340Z,101015.47
2022-12-18T08:58:28.812Z,101014.34
2022-12-18T09:00:55.364Z,101029.47
2022-12-18T09:03:23.675Z,101027.78
2022-12-18T09:05:50.295Z,101028.09
2022-12-18T09:08:16.802Z,101028.81
2022-12-18T09:10:45.358Z,101026.72
2022-12-18T09:13:13.022Z,101032.75
2022-12-18T09:15:44.164Z,101029.91
2022-12-18T09:18:10.716Z,101028.88
2022-12-18T09:20:38.274Z,101034.72
2022-12-18T09:23:05.135Z,101049.00
2022-12-18T09:25:34.071Z,101053.47
2022-12-18T09:28:01.215Z,101052.84
2022-12-18T09:30:28.501Z,101052.78
2022-12-18T09:32:55.203Z,101059.69
2022-12-18T09:35:21.917Z,101052.78
2022-12-18T09:37:48.623Z,101063.94
2022-12-18T09:40:21.344Z,101063.06
2022-12-18T09:43:00.353Z,101060.72
2022-12-18T09:45:27.234Z,101054.50
2022-12-18T09:47:56.497Z,101057.91
2022-12-18T09:50:22.934Z,101050.03
2022-12-18T09:52:53.520Z,101057.59
2022-12-18T09:55:35.145Z,101057.97
2022-12-18T09:58:32.774Z,101051.31
2022-12-18T10:00:59.490Z,101048.91
2022-12-18T10:03:26.586Z,101039.94
2022-12-18T10:06:19.516Z,101036.84
2022-12-18T10:09:04.839Z,101032.56
2022-12-18T10:11:49.436Z,101020.03
2022-12-18T10:14:37.728Z,101008.69
2022-12-18T10:17:13.237Z,101016.50
2022-12-18T10:19:50.290Z,101003.44
2022-12-18T10:22:43.104Z,101005.28
2022-12-18T10:25:22.704Z,101002.44
2022-12-18T10:27:52.699Z,100992.69
2022-12-18T10:30:22.082Z,100982.34
2022-12-18T10:32:48.586Z,100981.69
2022-12-18T10:35:25.418Z,100982.06
2022-12-18T10:38:02.221Z,100981.06
2022-12-18T10:40:29.149Z,100975.06
2022-12-18T10:43:15.465Z,100968.34
2022-12-18T10:45:43.197Z,100965.72
2022-12-18T10:48:21.856Z,100969.22
2022-12-18T10:53:38.598Z,100962.31
2022-12-18T10:56:07.537Z,100958.84
2022-12-18T10:58:39.474Z,100962.69
2022-12-18T11:01:12.380Z,100955.72
2022-12-18T11:03:46.182Z,100958.19
2022-12-18T11:06:25.417Z,100955.63
2022-12-18T11:08:59.629Z,100957.31
2022-12-18T11:11:26.667Z,100951.25
2022-12-18T11:14:13.437Z,100952.56
2022-12-18T11:17:23.812Z,100950.16
2022-12-18T11:19:40.916Z,100939.69
2022-12-18T11:22:31.379Z,100935.53
2022-12-18T11:25:34.440Z,100928.59
2022-12-18T11:28:05.455Z,100935.53
2022-12-18T11:30:37.323Z,100930.25
2022-12-18T11:33:12.088Z,100939.88
2022-12-18T11:35:44.670Z,100941.78
2022-12-18T11:38:30.651Z,100936.28
2022-12-18T11:41:22.099Z,100940.91
2022-12-18T11:43:56.950Z,100936.59
2022-12-18T11:46:37.221Z,100936.81
2022-12-18T11:49:29.623Z,100930.47
2022-12-18T11:52:23.907Z,100935.66
2022-12-18T11:54:56.283Z,100930.44
2022-12-18T11:57:35.927Z,100936.69
2022-12-18T12:00:02.528Z,100943.78
2022-12-18T12:02:57.441Z,100941.13
2022-12-18T12:05:39.257Z,100937.81
2022-12-18T12:08:08.766Z,100940.47
2022-12-18T12:11:07.189Z,100942.34
2022-12-18T12:13:55.608Z,100943.34
2022-12-18T12:16:30.865Z,100947.31
2022-12-18T12:19:31.634Z,100955.28
2022-12-18T12:22:28.479Z,100957.88
2022-12-18T12:25:04.472Z,100949.88
2022-12-18T12:27:43.079Z,100946.31
2022-12-18T12:30:19.658Z,100957.84
2022-12-18T12:33:06.202Z,100962.03
2022-12-18T12:35:47.756Z,100976.75
2022-12-18T12:38:25.033Z,100987.41
2022-12-18T12:41:03.279Z,100984.88
2022-12-18T12:43:40.360Z,100980.25
2022-12-18T12:46:12.552Z,100992.34
2022-12-18T12:48:50.780Z,100992.16
2022-12-18T12:51:21.920Z,100990.22
2022-12-18T12:53:50.058Z,100984.84
2022-12-18T12:56:20.239Z,100978.41
2022-12-18T12:59:03.679Z,100974.50
2022-12-18T13:01:39.446Z,100971.41
2022-12-18T13:04:30.731Z,100962.19
2022-12-18T13:07:21.417Z,100957.41
2022-12-18T13:16:09.134Z,100969.06
2022-12-18T13:18:36.280Z,100974.09
2022-12-18T13:21:03.826Z,100966.91
2022-12-18T13:23:41.630Z,100971.81
2022-12-18T13:26:11.763Z,100971.84
2022-12-18T13:28:47.301Z,100962.84
2022-12-18T13:31:42.094Z,100975.69
2022-12-18T13:34:27.761Z,100965.56
2022-12-18T13:36:57.496Z,100962.06
2022-12-18T13:39:35.863Z,100955.69
2022-12-18T13:42:05.641Z,100958.91
2022-12-18T13:47:38.456Z,100962.38
2022-12-18T13:50:47.996Z,100963.09
2022-12-18T13:53:25.134Z,100955.91
2022-12-18T13:55:52.971Z,100948.66
2022-12-18T13:58:19.905Z,100942.56
2022-12-18T14:00:46.751Z,100946.03
2022-12-18T14:03:27.371Z,100948.53
2022-12-18T14:06:02.105Z,100940.53
2022-12-18T14:08:34.820Z,100950.19
2022-12-18T14:11:02.497Z,100958.78
2022-12-18T14:13:33.302Z,100965.47
2022-12-18T14:16:03.854Z,100969.69
2022-12-18T14:18:39.897Z,100966.03
2022-12-18T14:21:07.882Z,100963.91
2022-12-18T14:23:42.084Z,100947.19
2022-12-18T14:26:30.608Z,100944.22
2022-12-18T14:28:58.999Z,100940.56
2022-12-18T14:31:27.914Z,100938.53
2022-12-18T14:33:54.653Z,100928.88
2022-12-18T14:36:29.991Z,100919.00
2022-12-18T14:38:58.483Z,100921.69
2022-12-18T14:41:26.573Z,100918.75
2022-12-18T14:47:03.041Z,100907.63
2022-12-18T14:49:35.261Z,100908.34
2022-12-18T14:52:07.468Z,100916.81
2022-12-18T14:54:38.413Z,100928.06
2022-12-18T14:57:36.692Z,100927.03
2022-12-18T15:00:09.071Z,100933.19
2022-12-18T15:02:37.316Z,100947.06
2022-12-18T15:05:19.985Z,100940.78
2022-12-18T15:07:57.967Z,100942.22
2022-12-18T15:10:27.966Z,100936.94
2022-12-18T15:12:57.249Z,100942.66
2022-12-18T15:15:38.784Z,100928.81
2022-12-18T15:18:15.115Z,100924.97
2022-12-18T15:24:19.196Z,100924.78
2022-12-18T15:26:45.793Z,100920.28
2022-12-18T15:29:24.498Z,100923.38
2022-12-18T15:32:21.103Z,100925.06
2022-12-18T15:34:47.610Z,100930.97
2022-12-18T15:37:14.138Z,100926.72
2022-12-18T15:39:40.729Z,100917.75
2022-12-18T15:42:28.763Z,100911.72
2022-12-18T15:44:55.322Z,100915.91
2022-12-18T15:47:21.797Z,100916.78
2022-12-18T15:49:48.374Z,100918.53
2022-12-18T15:52:15.034Z,100911.44
2022-12-18T15:55:00.107Z,100910.50
2022-12-18T15:57:27.394Z,100906.03
2022-12-18T15:59:59.299Z,100905.81
2022-12-18T16:02:26.732Z,100904.66
2022-12-18T16:04:53.748Z,100907.28
2022-12-18T16:07:25.137Z,100895.22
2022-12-18T16:09:52.849Z,100891.78
2022-12-18T16:12:23.341Z,100891.84
2022-12-18T16:14:49.981Z,100892.47
2022-12-18T16:17:16.668Z,100896.75
2022-12-18T16:19:43.320Z,100895.78
2022-12-18T16:22:23.116Z,100908.09
2022-12-18T16:24:50.942Z,100895.22
2022-12-18T16:27:17.911Z,100885.66
2022-12-18T16:29:44.484Z,100887.38
2022-12-18T16:32:15.719Z,100891.63
2022-12-18T16:34:43.300Z,100890.75
2022-12-18T16:37:11.501Z,100881.16
2022-12-18T16:39:39.357Z,100893.22
2022-12-18T16:42:19.792Z,100881.81
2022-12-18T16:44:47.336Z,100881.13
2022-12-18T16:47:15.365Z,100877.53
2022-12-18T16:49:42.819Z,100869.63
2022-12-18T16:52:09.427Z,100874.84
2022-12-18T16:54:36.758Z,100875.81
2022-12-18T16:57:05.530Z,100873.47
2022-12-18T16:59:32.751Z,100879.53
2022-12-18T17:01:59.443Z,100878.50
2022-12-18T17:04:26.224Z,100884.53
2022-12-18T17:06:53.956Z,100876.69
2022-12-18T17:09:25.374Z,100879.53
2022-12-18T17:11:53.709Z,100878.72
2022-12-18T17:14:23.480Z,100863.94
2022-12-18T17:17:07.394Z,100868.25
2022-12-18T17:19:36.920Z,100868.31
2022-12-18T17:22:04.412Z,100875.38
2022-12-18T17:24:34.787Z,100868.50
2022-12-18T17:27:02.288Z,100871.13
2022-12-18T17:29:28.852Z,100874.81
2022-12-18T17:31:55.406Z,100859.91
2022-12-18T17:34:24.194Z,100855.44
2022-12-18T17:36:50.586Z,100846.72
2022-12-18T17:39:19.683Z,100857.34
2022-12-18T17:41:46.604Z,100858.03
2022-12-18T17:44:13.051Z,100855.50
2022-12-18T17:46:39.764Z,100859.00
2022-12-18T17:49:06.433Z,100856.31
2022-12-18T17:51:33.233Z,100860.78
2022-12-18T17:54:00.021Z,100850.25
2022-12-18T17:56:26.890Z,100843.41
2022-12-18T17:58:53.783Z,100845.09
2022-12-18T18:01:23.694Z,100853.75
2022-12-18T18:03:52.866Z,100843.41
2022-12-18T18:06:20.564Z,100838.97
2022-12-18T18:08:47.148Z,100843.53
2022-12-18T18:11:38.080Z,100854.00
2022-12-18T18:14:15.857Z,100844.28
2022-12-18T18:16:44.882Z,100847.69
2022-12-18T18:19:14.570Z,100834.91
2022-12-18T18:21:43.876Z,100834.09
2022-12-18T18:24:13.107Z,100845.38
2022-12-18T18:26:41.652Z,100837.72
2022-12-18T18:29:08.971Z,100837.66
2022-12-18T18:31:41.297Z,100827.88
2022-12-18T18:34:08.753Z,100824.66
2022-12-18T18:36:35.311Z,100814.13
2022-12-18T18:39:02.143Z,100803.91
2022-12-18T18:41:30.011Z,100808.06
2022-12-18T18:43:57.831Z,100807.34
2022-12-18T18:46:25.519Z,100804.16
2022-12-18T18:48:52.100Z,100798.94
2022-12-18T18:51:21.464Z,100801.66
2022-12-18T18:53:51.114Z,100794.00
2022-12-18T18:59:07.677Z,100788.66
2022-12-18T19:01:34.219Z,100775.75
2022-12-18T19:04:04.208Z,100768.91
2022-12-18T19:06:31.595Z,100778.59
2022-12-18T19:09:01.401Z,100785.59
2022-12-18T19:11:46.927Z,100782.91
2022-12-18T19:14:15.110Z,100770.75
2022-12-18T19:16:42.882Z,100765.00
2022-12-18T19:19:09.985Z,100750.25
2022-12-18T19:21:38.176Z,100747.53
2022-12-18T19:24:05.593Z,100744.97
2022-12-18T19:26:32.260Z,100750.97
2022-12-18T19:29:03.923Z,100751.13
2022-12-18T19:31:35.532Z,100744.03
2022-12-18T19:34:04.979Z,100743.28
2022-12-18T19:36:32.535Z,100737.97
2022-12-18T19:39:01.524Z,100744.97
2022-12-18T19:41:32.014Z,100740.59
2022-12-18T19:44:00.131Z,100742.34
2022-12-18T19:46:28.758Z,100731.88
2022-12-18T19:48:55.248Z,100733.66
2022-12-18T19:51:25.750Z,100736.44
2022-12-18T19:53:58.185Z,100717.16
2022-12-18T19:56:28.664Z,100723.47
2022-12-18T19:58:55.262Z,100713.88
2022-12-18T20:01:24.026Z,100713.00
2022-12-18T20:03:52.409Z,100719.13
2022-12-18T20:06:46.081Z,100716.81
2022-12-18T20:09:12.641Z,100709.00
2022-12-18T20:11:41.892Z,100703.06
2022-12-18T20:14:13.764Z,100704.84
2022-12-18T20:16:41.080Z,100717.94
2022-12-18T20:19:08.670Z,100712.66
2022-12-18T20:21:36.027Z,100719.72
2022-12-18T20:24:02.681Z,100719.13
2022-12-18T20:26:29.688Z,100729.06
2022-12-18T20:28:56.168Z,100716.03
2022-12-18T20:31:22.809Z,100708.16
2022-12-18T20:33:49.883Z,100706.66
2022-12-18T20:36:22.636Z,100713.59
2022-12-18T20:38:55.700Z,100713.59
2022-12-18T20:41:25.695Z,100701.34
2022-12-18T20:43:53.885Z,100709.50
2022-12-18T20:46:20.860Z,100697.34
2022-12-18T20:48:48.201Z,100691.16
2022-12-18T20:51:20.076Z,100681.63
2022-12-18T20:53:47.314Z,100700.06
2022-12-18T20:56:21.322Z,100685.91
2022-12-18T20:58:49.169Z,100691.50
2022-12-18T21:01:18.833Z,100675.81
2022-12-18T21:03:46.137Z,100659.31
2022-12-18T21:06:15.359Z,100656.88
2022-12-18T21:08:42.119Z,100663.72
2022-12-18T21:11:35.736Z,100661.84
2022-12-18T21:14:03.224Z,100672.25
2022-12-18T21:16:30.009Z,100674.03
2022-12-18T21:18:56.525Z,100673.09
2022-12-18T21:21:27.017Z,100675.03
2022-12-18T21:23:54.638Z,100686.44
2022-12-18T21:26:26.642Z,100675.03
2022-12-18T21:28:58.938Z,100675.03
2022-12-18T21:31:29.310Z,100673.34
2022-12-18T21:34:01.813Z,100673.25
2022-12-18T21:36:29.615Z,100670.59
2022-12-18T21:38:57.075Z,100672.31
2022-12-18T21:41:43.845Z,100664.38
2022-12-18T21:44:12.907Z,100666.13
2022-12-18T21:46:42.325Z,100657.53
2022-12-18T21:49:09.985Z,100657.47
2022-12-18T21:51:37.142Z,100660.88
2022-12-18T21:54:03.790Z,100658.31
2022-12-18T21:56:50.784Z,100658.34
2022-12-18T21:59:20.142Z,100652.97
2022-12-18T22:01:47.641Z,100648.59
2022-12-18T22:04:15.904Z,100650.41
2022-12-18T22:06:43.290Z,100645.25
2022-12-18T22:09:12.151Z,100639.91
2022-12-18T22:11:38.699Z,100645.25
2022-12-18T22:14:05.283Z,100634.72
2022-12-18T22:16:31.894Z,100641.78
2022-12-18T22:18:58.435Z,100624.34
2022-12-18T22:21:29.252Z,100636.50
2022-12-18T22:24:00.152Z,100625.97
2022-12-18T22:26:28.410Z,100633.78
2022-12-18T22:29:13.447Z,100631.09
2022-12-18T22:31:40.719Z,100631.03
2022-12-18T22:34:08.258Z,100620.59
2022-12-18T22:36:37.743Z,100617.19
2022-12-18T22:39:07.123Z,100614.38
2022-12-18T22:41:33.786Z,100616.19
2022-12-18T22:44:00.330Z,100614.31
2022-12-18T22:46:27.267Z,100619.47
2022-12-18T22:48:53.914Z,100608.13
2022-12-18T22:51:20.771Z,100600.34
2022-12-18T22:53:47.785Z,100580.19
2022-12-18T22:56:21.143Z,100593.19
2022-12-18T22:58:51.767Z,100591.31
2022-12-18T23:01:21.883Z,100598.16
2022-12-18T23:06:25.582Z,100591.25
2022-12-18T23:08:55.961Z,100582.56
2022-12-18T23:11:22.748Z,100571.22
2022-12-18T23:13:49.243Z,100568.53
2022-12-18T23:16:18.164Z,100576.25
2022-12-18T23:18:45.540Z,100562.38
2022-12-18T23:21:18.374Z,100560.47
2022-12-18T23:23:45.421Z,100552.34
2022-12-18T23:26:20.686Z,100542.69
2022-12-18T23:28:48.264Z,100532.13
2022-12-18T23:31:19.031Z,100535.69
2022-12-18T23:33:47.196Z,100530.34
2022-12-18T23:36:14.508Z,100528.78
2022-12-18T23:38:41.426Z,100527.72
2022-12-18T23:41:10.676Z,100528.56
2022-12-18T23:43:38.313Z,100527.69
2022-12-18T23:46:23.055Z,100516.56
2022-12-18T23:48:50.321Z,100508.59
2022-12-18T23:51:18.171Z,100512.09
2022-12-18T23:53:44.943Z,100501.47
2022-12-18T23:56:13.724Z,100491.88
2022-12-18T23:58:41.193Z,100483.97
